Time;durP1;ratioP1;P1;durP2;ratioP2;P2;SDS_P1;SDS_P2;PMS_P1;PMS_P2;Temp;Humidity;BMP_temperature;BMP_pressure;BME280_temperature;BME280_humidity;BME280_pressure;Samples;Min_cycle;Max_cycle;Signal;HPM_P1;HPM_P2
2021/03/14 00:01:30;;;;;;;;;;;25.80;86.20;;;;;;5060804;28;19909;-51
2021/03/14 00:03:56;;;;;;;;;;;25.80;86.20;;;;;;5061123;28;20135;-54
2021/03/14 00:06:22;;;;;;;;;;;25.80;86.10;;;;;;5061045;28;19940;-54
2021/03/14 00:08:48;;;;;;;;;;;25.80;86.10;;;;;;5061237;28;19928;-55
2021/03/14 00:11:14;;;;;;;;;;;25.80;86.10;;;;;;5060811;28;19951;-48
2021/03/14 00:13:41;;;;;;;;;;;25.80;86.30;;;;;;5061359;28;19927;-52
2021/03/14 00:16:08;;;;;;;;;;;25.80;86.40;;;;;;5043726;28;19949;-59
2021/03/14 00:18:38;;;;;;;;;;;25.80;86.70;;;;;;5061886;28;19917;-48
2021/03/14 00:21:05;;;;;;;;;;;25.80;86.70;;;;;;5060670;28;19904;-52
2021/03/14 00:23:31;;;;;;;;;;;25.80;86.80;;;;;;5060908;28;19958;-50
2021/03/14 00:25:58;;;;;;;;;;;25.70;86.80;;;;;;5060799;28;20146;-48
2021/03/14 00:28:25;;;;;;;;;;;25.70;86.80;;;;;;5044072;28;19921;-51
2021/03/14 00:30:51;;;;;;;;;;;25.80;87.00;;;;;;5061616;28;19905;-52
2021/03/14 00:33:18;;;;;;;;;;;25.80;87.00;;;;;;5044067;28;19919;-49
2021/03/14 00:35:45;;;;;;;;;;;25.70;87.00;;;;;;5060564;28;19942;-52
2021/03/14 00:38:13;;;;;;;;;;;25.70;87.30;;;;;;5062005;28;19924;-51
2021/03/14 00:40:42;;;;;;;;;;;25.70;87.40;;;;;;5043697;28;19917;-48
2021/03/14 00:43:09;;;;;;;;;;;25.70;87.10;;;;;;5045780;28;19921;-49
2021/03/14 00:45:43;;;;;;;;;;;25.70;86.60;;;;;;5061232;28;19904;-52
2021/03/14 00:48:09;;;;;;;;;;;25.70;86.60;;;;;;5044258;28;19920;-49
2021/03/14 00:50:38;;;;;;;;;;;25.80;87.10;;;;;;5060958;28;19912;-51
2021/03/14 00:53:04;;;;;;;;;;;25.70;86.90;;;;;;5060729;28;19934;-50
2021/03/14 00:55:31;;;;;;;;;;;25.80;87.10;;;;;;5060582;28;19909;-53
2021/03/14 00:57:57;;;;;;;;;;;25.70;87.10;;;;;;5060301;28;19992;-49
2021/03/14 01:00:25;;;;;;;;;;;25.70;87.00;;;;;;5061005;28;19912;-51
2021/03/14 01:02:51;;;;;;;;;;;25.70;87.50;;;;;;5060122;28;20032;-49
2021/03/14 01:05:17;;;;;;;;;;;25.70;87.40;;;;;;5060472;28;20193;-48
2021/03/14 01:07:45;;;;;;;;;;;25.60;87.10;;;;;;5042725;28;19917;-52
2021/03/14 01:10:11;;;;;;;;;;;25.60;87.40;;;;;;5060343;28;19909;-53
2021/03/14 01:12:40;;;;;;;;;;;25.60;87.80;;;;;;5063310;28;20154;-50
2021/03/14 01:15:08;;;;;;;;;;;25.60;87.60;;;;;;5063997;28;19917;-51
2021/03/14 01:17:35;;;;;;;;;;;25.60;87.80;;;;;;5063635;28;20105;-51
2021/03/14 01:20:04;;;;;;;;;;;25.60;87.80;;;;;;5063543;28;20202;-52
2021/03/14 01:22:33;;;;;;;;;;;25.60;87.80;;;;;;5063895;28;19909;-50
2021/03/14 01:25:03;;;;;;;;;;;25.60;88.30;;;;;;5064238;28;19908;-50
2021/03/14 01:27:30;;;;;;;;;;;25.60;88.00;;;;;;5063811;28;19908;-48
2021/03/14 01:29:57;;;;;;;;;;;25.60;88.30;;;;;;5046598;28;20231;-57
2021/03/14 01:32:23;;;;;;;;;;;25.60;88.10;;;;;;5063495;28;19909;-50
2021/03/14 01:34:50;;;;;;;;;;;25.60;87.70;;;;;;5029572;28;19908;-53
2021/03/14 01:37:17;;;;;;;;;;;25.60;87.80;;;;;;5063664;28;20315;-52
2021/03/14 01:39:47;;;;;;;;;;;25.60;87.50;;;;;;5063224;28;19920;-50
2021/03/14 01:42:14;;;;;;;;;;;25.70;87.30;;;;;;5063581;28;19975;-51
2021/03/14 01:44:47;;;;;;;;;;;25.70;87.30;;;;;;5063972;28;19909;-52
2021/03/14 01:47:17;;;;;;;;;;;25.60;87.00;;;;;;5063988;28;19913;-53
2021/03/14 01:49:43;;;;;;;;;;;25.70;86.90;;;;;;5064571;28;19917;-49
2021/03/14 01:52:13;;;;;;;;;;;25.70;86.60;;;;;;5064235;28;19909;-52
2021/03/14 01:54:39;;;;;;;;;;;25.70;86.50;;;;;;5064439;28;19916;-53
2021/03/14 01:57:05;;;;;;;;;;;25.70;86.30;;;;;;5045710;28;19920;-53
2021/03/14 01:59:32;;;;;;;;;;;25.70;86.40;;;;;;5062593;28;19909;-53
2021/03/14 02:02:01;;;;;;;;;;;25.70;86.30;;;;;;5045456;28;19916;-53
2021/03/14 02:04:27;;;;;;;;;;;25.60;86.10;;;;;;5064064;28;19909;-54
2021/03/14 02:06:56;;;;;;;;;;;25.60;86.30;;;;;;5063209;27;20189;-52
2021/03/14 02:09:22;;;;;;;;;;;25.70;86.40;;;;;;5062935;28;19913;-50
2021/03/14 02:11:48;;;;;;;;;;;25.60;85.90;;;;;;5045298;28;19905;-50
2021/03/14 02:14:19;;;;;;;;;;;25.60;85.80;;;;;;5045808;28;19931;-51
2021/03/14 02:16:47;;;;;;;;;;;25.60;86.10;;;;;;5062888;28;19908;-52
2021/03/14 02:19:44;;;;;;;;;;;25.60;85.70;;;;;;5063729;28;20181;-51
2021/03/14 02:22:12;;;;;;;;;;;25.60;85.60;;;;;;5056396;28;19908;-52
2021/03/14 02:24:46;;;;;;;;;;;25.60;86.20;;;;;;5045198;28;20109;-57
2021/03/14 02:27:12;;;;;;;;;;;25.60;86.60;;;;;;5062987;28;19912;-54
2021/03/14 02:29:40;;;;;;;;;;;25.60;86.20;;;;;;5045705;28;19912;-52
2021/03/14 02:32:08;;;;;;;;;;;25.50;86.00;;;;;;5028837;28;19953;-52
2021/03/14 02:34:37;;;;;;;;;;;25.50;85.90;;;;;;5062616;28;19912;-54
2021/03/14 02:37:05;;;;;;;;;;;25.60;85.60;;;;;;5063275;28;19909;-52
2021/03/14 02:39:33;;;;;;;;;;;25.60;85.50;;;;;;5045731;28;19920;-51
2021/03/14 02:42:00;;;;;;;;;;;25.60;84.80;;;;;;5062819;28;19905;-52
2021/03/14 02:44:32;;;;;;;;;;;25.60;84.40;;;;;;5045028;28;19913;-52
2021/03/14 02:46:59;;;;;;;;;;;25.60;84.20;;;;;;5062514;28;19904;-49
2021/03/14 02:49:29;;;;;;;;;;;25.60;84.00;;;;;;5063111;28;19921;-50
2021/03/14 02:51:55;;;;;;;;;;;25.60;83.90;;;;;;5062720;28;19909;-54
2021/03/14 02:54:22;;;;;;;;;;;25.60;84.20;;;;;;5062372;28;19916;-51
2021/03/14 02:56:49;;;;;;;;;;;25.60;84.10;;;;;;5061699;28;19930;-57
2021/03/14 02:59:20;;;;;;;;;;;25.60;84.20;;;;;;5062799;28;19983;-50
2021/03/14 03:01:47;;;;;;;;;;;25.60;84.20;;;;;;5062203;28;19905;-49
2021/03/14 03:04:19;;;;;;;;;;;25.60;84.10;;;;;;5062847;28;20194;-52
2021/03/14 03:06:50;;;;;;;;;;;25.60;84.00;;;;;;5062835;27;20193;-51
2021/03/14 03:09:19;;;;;;;;;;;25.60;84.30;;;;;;5045400;28;20232;-53
2021/03/14 03:11:48;;;;;;;;;;;25.60;84.30;;;;;;5062641;28;19912;-51
2021/03/14 03:14:16;;;;;;;;;;;25.60;84.80;;;;;;5044867;28;19920;-52
2021/03/14 03:16:42;;;;;;;;;;;25.60;84.20;;;;;;5063008;28;19909;-51
2021/03/14 03:19:12;;;;;;;;;;;25.60;84.20;;;;;;5062538;28;19940;-52
2021/03/14 03:21:39;;;;;;;;;;;25.60;84.30;;;;;;5062023;28;20245;-54
2021/03/14 03:24:06;;;;;;;;;;;25.50;84.50;;;;;;5061760;28;19934;-53
2021/03/14 03:26:32;;;;;;;;;;;25.60;84.80;;;;;;5062023;28;20216;-54
2021/03/14 03:28:58;;;;;;;;;;;25.60;84.50;;;;;;5062042;28;19912;-55
2021/03/14 03:31:24;;;;;;;;;;;25.60;84.70;;;;;;5061855;28;20211;-57
2021/03/14 03:33:51;;;;;;;;;;;25.60;84.40;;;;;;5062622;28;19913;-55
2021/03/14 03:36:17;;;;;;;;;;;25.60;84.60;;;;;;5043900;28;19905;-50
2021/03/14 03:38:44;;;;;;;;;;;25.60;84.60;;;;;;5061722;28;19917;-52
2021/03/14 03:41:13;;;;;;;;;;;25.60;84.30;;;;;;5045218;28;19943;-51
2021/03/14 03:43:39;;;;;;;;;;;25.60;84.40;;;;;;5044383;28;19913;-51
2021/03/14 03:46:09;;;;;;;;;;;25.60;84.30;;;;;;5043843;28;20181;-51
2021/03/14 03:48:35;;;;;;;;;;;25.60;84.10;;;;;;5062021;28;19920;-51
2021/03/14 03:51:03;;;;;;;;;;;25.60;84.30;;;;;;5062162;28;20222;-54
2021/03/14 03:53:29;;;;;;;;;;;25.60;84.20;;;;;;5061965;28;20182;-54
2021/03/14 03:55:56;;;;;;;;;;;25.60;84.20;;;;;;5044424;28;20236;-52
2021/03/14 03:58:23;;;;;;;;;;;25.60;83.80;;;;;;5062034;28;20051;-52
2021/03/14 04:00:50;;;;;;;;;;;25.60;83.70;;;;;;5061514;28;19905;-53
2021/03/14 04:03:16;;;;;;;;;;;25.60;83.60;;;;;;5043866;28;20164;-52
2021/03/14 04:05:43;;;;;;;;;;;25.60;83.50;;;;;;5061352;28;19912;-52
2021/03/14 04:08:10;;;;;;;;;;;25.60;83.60;;;;;;5061107;28;19944;-52
2021/03/14 04:10:36;;;;;;;;;;;25.60;84.00;;;;;;5061338;28;19912;-53
2021/03/14 04:13:03;;;;;;;;;;;25.60;84.10;;;;;;5061359;28;19912;-51
2021/03/14 04:15:31;;;;;;;;;;;25.60;84.40;;;;;;5061277;28;19904;-52
2021/03/14 04:17:58;;;;;;;;;;;25.60;84.60;;;;;;5061329;28;19917;-51
2021/03/14 04:20:27;;;;;;;;;;;25.60;84.80;;;;;;5061687;28;19909;-48
2021/03/14 04:22:58;;;;;;;;;;;25.50;84.40;;;;;;5044875;28;20093;-50
2021/03/14 04:25:25;;;;;;;;;;;25.50;84.20;;;;;;5063088;28;19916;-58
2021/03/14 04:27:53;;;;;;;;;;;25.50;84.20;;;;;;5061840;28;19962;-58
2021/03/14 04:30:20;;;;;;;;;;;25.50;84.20;;;;;;5061099;28;19908;-51
2021/03/14 04:32:47;;;;;;;;;;;25.50;84.30;;;;;;5061014;28;20101;-52
2021/03/14 04:35:13;;;;;;;;;;;25.50;84.60;;;;;;5061038;28;19909;-51
2021/03/14 04:37:40;;;;;;;;;;;25.50;83.90;;;;;;5060663;28;19939;-55
2021/03/14 04:40:07;;;;;;;;;;;25.50;83.70;;;;;;5043071;28;19915;-51
2021/03/14 04:42:34;;;;;;;;;;;25.60;83.70;;;;;;5060955;28;19978;-56
2021/03/14 04:45:01;;;;;;;;;;;25.50;83.60;;;;;;5061142;28;19919;-51
2021/03/14 04:47:27;;;;;;;;;;;25.50;83.70;;;;;;5063782;28;20075;-51
2021/03/14 04:49:54;;;;;;;;;;;25.50;84.30;;;;;;5065010;28;19972;-51
2021/03/14 04:52:21;;;;;;;;;;;25.50;83.70;;;;;;5064279;28;19909;-54
2021/03/14 04:54:48;;;;;;;;;;;25.50;84.40;;;;;;5064674;28;19936;-50
2021/03/14 04:57:16;;;;;;;;;;;25.40;84.70;;;;;;5046421;28;19948;-51
2021/03/14 04:59:43;;;;;;;;;;;25.40;84.50;;;;;;5064626;28;19909;-53
2021/03/14 05:02:10;;;;;;;;;;;25.40;84.40;;;;;;5064764;28;20139;-50
2021/03/14 05:04:36;;;;;;;;;;;25.50;84.50;;;;;;5064813;28;19912;-50
2021/03/14 05:07:03;;;;;;;;;;;25.40;84.20;;;;;;5064602;27;20216;-51
2021/03/14 05:09:30;;;;;;;;;;;25.50;84.00;;;;;;5064535;28;19940;-52
2021/03/14 05:11:56;;;;;;;;;;;25.50;84.20;;;;;;5064056;28;19911;-52
2021/03/14 05:14:23;;;;;;;;;;;25.50;83.90;;;;;;5064259;28;20123;-51
2021/03/14 05:16:49;;;;;;;;;;;25.50;83.90;;;;;;5063996;28;19909;-50
2021/03/14 05:19:16;;;;;;;;;;;25.60;83.60;;;;;;5064215;28;19913;-51
2021/03/14 05:21:42;;;;;;;;;;;25.50;83.50;;;;;;5063814;28;19905;-51
2021/03/14 05:24:12;;;;;;;;;;;25.60;83.40;;;;;;5064169;28;19913;-52
2021/03/14 05:26:43;;;;;;;;;;;25.60;83.30;;;;;;5064150;28;19932;-52
2021/03/14 05:29:13;;;;;;;;;;;25.60;83.40;;;;;;5063684;28;19980;-52
2021/03/14 05:31:39;;;;;;;;;;;25.60;83.40;;;;;;5063825;28;19912;-52
2021/03/14 05:34:07;;;;;;;;;;;25.60;83.20;;;;;;5064166;28;19944;-52
2021/03/14 05:36:33;;;;;;;;;;;25.60;83.00;;;;;;5063551;28;19958;-54
2021/03/14 05:39:00;;;;;;;;;;;25.60;83.00;;;;;;5064743;28;19958;-51
2021/03/14 05:41:27;;;;;;;;;;;25.60;83.10;;;;;;5066394;28;19905;-55
2021/03/14 05:43:53;;;;;;;;;;;25.60;82.90;;;;;;5064559;28;19917;-52
2021/03/14 05:46:20;;;;;;;;;;;25.60;82.80;;;;;;5063911;28;19992;-51
2021/03/14 05:48:47;;;;;;;;;;;25.60;83.00;;;;;;5063722;28;19920;-51
2021/03/14 05:51:21;;;;;;;;;;;25.60;82.70;;;;;;5064054;28;19928;-54
2021/03/14 05:53:49;;;;;;;;;;;25.60;82.80;;;;;;5045814;28;19947;-53
2021/03/14 05:56:16;;;;;;;;;;;25.60;82.80;;;;;;5063340;28;19958;-52
2021/03/14 05:58:44;;;;;;;;;;;25.60;82.70;;;;;;5062394;28;19917;-52
2021/03/14 06:01:13;;;;;;;;;;;25.60;82.60;;;;;;5063419;28;19905;-51
2021/03/14 06:03:39;;;;;;;;;;;25.60;82.70;;;;;;5063376;28;19913;-51
2021/03/14 06:06:11;;;;;;;;;;;25.70;82.50;;;;;;5063197;28;20101;-51
2021/03/14 06:08:37;;;;;;;;;;;25.60;82.50;;;;;;5063177;28;19928;-54
2021/03/14 06:11:04;;;;;;;;;;;25.60;82.70;;;;;;5063085;28;19940;-52
2021/03/14 06:13:31;;;;;;;;;;;25.60;82.60;;;;;;5063392;28;19913;-54
2021/03/14 06:15:57;;;;;;;;;;;25.60;82.60;;;;;;5063126;28;20295;-51
2021/03/14 06:18:24;;;;;;;;;;;25.60;82.40;;;;;;5063091;28;19916;-51
2021/03/14 06:20:51;;;;;;;;;;;25.60;82.50;;;;;;5062876;28;19905;-51
2021/03/14 06:23:18;;;;;;;;;;;25.60;82.40;;;;;;5063079;28;19920;-51
2021/03/14 06:25:45;;;;;;;;;;;25.60;82.30;;;;;;5062864;28;19940;-51
2021/03/14 06:28:12;;;;;;;;;;;25.60;82.40;;;;;;5062877;28;19912;-50
2021/03/14 06:30:39;;;;;;;;;;;25.60;82.30;;;;;;5062700;28;19919;-52
2021/03/14 06:33:20;;;;;;;;;;;25.60;82.10;;;;;;5062762;28;19913;-57
2021/03/14 06:35:48;;;;;;;;;;;25.60;82.10;;;;;;5062744;28;20161;-51
2021/03/14 06:38:22;;;;;;;;;;;25.60;82.00;;;;;;5062864;28;19917;-51
2021/03/14 06:40:50;;;;;;;;;;;25.60;82.00;;;;;;5062572;28;19905;-51
2021/03/14 06:43:17;;;;;;;;;;;25.60;81.60;;;;;;5062612;28;19913;-55
2021/03/14 06:45:44;;;;;;;;;;;25.60;81.50;;;;;;5062668;28;19905;-51
2021/03/14 06:48:10;;;;;;;;;;;25.70;81.70;;;;;;5062471;28;19913;-51
2021/03/14 06:50:40;;;;;;;;;;;25.60;81.40;;;;;;5062534;28;19905;-52
2021/03/14 06:53:18;;;;;;;;;;;25.70;81.40;;;;;;5062590;28;19933;-53
2021/03/14 06:55:49;;;;;;;;;;;25.60;81.30;;;;;;5062338;28;19911;-51
2021/03/14 06:58:23;;;;;;;;;;;25.60;81.00;;;;;;5062461;28;19939;-51
2021/03/14 07:01:08;;;;;;;;;;;25.60;80.90;;;;;;5062186;28;19905;-56
2021/03/14 07:03:34;;;;;;;;;;;25.60;81.00;;;;;;5062846;28;20171;-51
2021/03/14 07:06:15;;;;;;;;;;;25.60;81.10;;;;;;5062371;28;19905;-52
2021/03/14 07:08:42;;;;;;;;;;;25.70;80.80;;;;;;5062099;28;19921;-50
2021/03/14 07:11:09;;;;;;;;;;;25.70;80.30;;;;;;5062251;28;19964;-50
2021/03/14 07:13:39;;;;;;;;;;;25.70;79.80;;;;;;5062273;28;19992;-51
2021/03/14 07:16:05;;;;;;;;;;;25.70;80.00;;;;;;5062084;28;19905;-50
2021/03/14 07:18:34;;;;;;;;;;;25.70;80.00;;;;;;5062251;28;19917;-48
2021/03/14 07:21:20;;;;;;;;;;;25.70;79.40;;;;;;5061960;28;19908;-51
2021/03/14 07:23:47;;;;;;;;;;;25.70;79.20;;;;;;5044378;28;19913;-49
2021/03/14 07:26:13;;;;;;;;;;;25.70;79.20;;;;;;5062031;28;20229;-51
2021/03/14 07:28:39;;;;;;;;;;;25.70;79.00;;;;;;5061948;28;19917;-49
2021/03/14 07:31:06;;;;;;;;;;;25.70;78.90;;;;;;5062082;28;19905;-51
2021/03/14 07:33:32;;;;;;;;;;;25.80;79.10;;;;;;5061968;28;19983;-51
2021/03/14 07:35:58;;;;;;;;;;;25.70;78.80;;;;;;5061703;28;19919;-51
2021/03/14 07:38:25;;;;;;;;;;;25.70;78.70;;;;;;5061996;28;20131;-52
2021/03/14 07:40:51;;;;;;;;;;;25.80;78.60;;;;;;5061612;28;19905;-52
2021/03/14 07:43:17;;;;;;;;;;;25.80;78.60;;;;;;5061868;28;19917;-53
2021/03/14 07:45:43;;;;;;;;;;;25.80;78.90;;;;;;5061574;28;19936;-51
2021/03/14 07:48:10;;;;;;;;;;;25.80;79.10;;;;;;5043957;28;19928;-52
2021/03/14 07:50:45;;;;;;;;;;;25.80;79.70;;;;;;5061790;28;19920;-51
2021/03/14 07:53:14;;;;;;;;;;;25.80;79.90;;;;;;5061518;28;19992;-52
2021/03/14 07:55:43;;;;;;;;;;;25.70;80.20;;;;;;5061478;28;19905;-58
2021/03/14 07:58:12;;;;;;;;;;;25.70;80.80;;;;;;5043735;28;19937;-53
2021/03/14 08:00:38;;;;;;;;;;;25.60;81.70;;;;;;5061503;28;20106;-48
2021/03/14 08:03:06;;;;;;;;;;;25.60;82.30;;;;;;5061409;28;19920;-53
2021/03/14 08:05:53;;;;;;;;;;;25.60;84.10;;;;;;5061475;28;19905;-53
2021/03/14 08:08:25;;;;;;;;;;;25.60;83.90;;;;;;5061320;28;20059;-52
2021/03/14 08:10:52;;;;;;;;;;;25.50;84.30;;;;;;5061343;28;20197;-52
2021/03/14 08:13:30;;;;;;;;;;;25.40;84.30;;;;;;5061320;28;20105;-50
2021/03/14 08:16:00;;;;;;;;;;;25.40;85.00;;;;;;5061352;28;19909;-54
2021/03/14 08:18:39;;;;;;;;;;;25.40;86.50;;;;;;5061411;28;19924;-52
2021/03/14 08:21:06;;;;;;;;;;;25.30;86.30;;;;;;5060572;28;19904;-56
2021/03/14 08:23:42;;;;;;;;;;;25.20;86.60;;;;;;5061227;28;19913;-56
2021/03/14 08:26:18;;;;;;;;;;;25.20;86.60;;;;;;5061069;28;19945;-51
2021/03/14 08:28:55;;;;;;;;;;;25.20;88.00;;;;;;5061419;28;19920;-51
2021/03/14 08:31:39;;;;;;;;;;;25.10;87.90;;;;;;5060990;28;20120;-52
2021/03/14 08:34:06;;;;;;;;;;;25.10;89.10;;;;;;5061182;28;19912;-51
2021/03/14 08:36:34;;;;;;;;;;;25.10;88.60;;;;;;5060802;28;19977;-52
2021/03/14 08:39:01;;;;;;;;;;;25.10;88.10;;;;;;5053091;28;20097;-51
2021/03/14 08:41:29;;;;;;;;;;;25.10;87.70;;;;;;5060844;28;19946;-50
2021/03/14 08:44:00;;;;;;;;;;;25.00;87.20;;;;;;5061078;28;19924;-52
2021/03/14 08:46:44;;;;;;;;;;;25.10;87.20;;;;;;5060904;28;19956;-51
2021/03/14 08:49:11;;;;;;;;;;;25.10;87.90;;;;;;5061085;28;19913;-51
2021/03/14 08:51:37;;;;;;;;;;;25.10;87.80;;;;;;5061200;28;19945;-52
2021/03/14 08:54:03;;;;;;;;;;;25.00;87.90;;;;;;5060790;28;19983;-50
2021/03/14 08:56:29;;;;;;;;;;;25.10;86.80;;;;;;5060558;28;20130;-51
2021/03/14 08:59:09;;;;;;;;;;;25.10;85.70;;;;;;5060899;28;19920;-51
2021/03/14 09:01:35;;;;;;;;;;;25.10;85.00;;;;;;5060999;28;20177;-52
2021/03/14 09:04:11;;;;;;;;;;;25.20;85.50;;;;;;5060772;28;20185;-52
2021/03/14 09:06:37;;;;;;;;;;;25.10;85.40;;;;;;5060478;28;19943;-53
2021/03/14 09:09:05;;;;;;;;;;;25.20;85.40;;;;;;5060731;28;20146;-52
2021/03/14 09:11:35;;;;;;;;;;;25.20;85.00;;;;;;5060606;28;19940;-55
2021/03/14 09:14:20;;;;;;;;;;;25.20;84.20;;;;;;5060745;28;19913;-51
2021/03/14 09:16:48;;;;;;;;;;;25.20;84.60;;;;;;5061333;28;19952;-50
2021/03/14 09:19:40;;;;;;;;;;;25.20;84.00;;;;;;5060774;28;19953;-50
2021/03/14 09:22:07;;;;;;;;;;;25.20;83.30;;;;;;5043471;28;20284;-56
2021/03/14 09:24:37;;;;;;;;;;;25.20;83.50;;;;;;5060717;28;19920;-50
2021/03/14 09:27:17;;;;;;;;;;;25.20;83.40;;;;;;5060558;28;19905;-45
2021/03/14 09:30:09;;;;;;;;;;;25.30;83.30;;;;;;5060813;28;20216;-51
2021/03/14 09:32:41;;;;;;;;;;;25.30;84.00;;;;;;5060897;28;19905;-49
2021/03/14 09:35:12;;;;;;;;;;;25.20;83.50;;;;;;5063711;28;19949;-51
2021/03/14 09:37:39;;;;;;;;;;;25.20;83.20;;;;;;5063283;28;19983;-51
2021/03/14 09:40:07;;;;;;;;;;;25.20;83.10;;;;;;5063790;28;19943;-52
2021/03/14 09:42:34;;;;;;;;;;;25.20;83.20;;;;;;5063599;28;20105;-51
2021/03/14 09:45:11;;;;;;;;;;;25.20;84.20;;;;;;5055308;28;19913;-51
2021/03/14 09:47:56;;;;;;;;;;;25.20;84.10;;;;;;5063347;28;20209;-52
2021/03/14 09:50:22;;;;;;;;;;;25.20;83.80;;;;;;5063334;28;19905;-51
2021/03/14 09:52:48;;;;;;;;;;;25.10;84.40;;;;;;5063472;28;19905;-51
2021/03/14 09:55:22;;;;;;;;;;;25.10;84.90;;;;;;5065702;28;20135;-48
2021/03/14 09:57:49;;;;;;;;;;;25.10;84.60;;;;;;5066435;28;19988;-56
2021/03/14 10:00:19;;;;;;;;;;;25.10;84.50;;;;;;5065848;28;19943;-51
2021/03/14 10:02:45;;;;;;;;;;;25.10;84.90;;;;;;5063154;28;19905;-52
2021/03/14 10:05:12;;;;;;;;;;;25.20;84.50;;;;;;5063227;28;20178;-51
2021/03/14 10:07:38;;;;;;;;;;;25.10;84.30;;;;;;5063032;28;19916;-54
2021/03/14 10:10:07;;;;;;;;;;;25.10;84.10;;;;;;5063113;28;19909;-48
2021/03/14 10:12:34;;;;;;;;;;;25.10;83.90;;;;;;5063118;28;19984;-51
2021/03/14 10:15:01;;;;;;;;;;;25.20;83.80;;;;;;5063086;28;19916;-52
2021/03/14 10:17:27;;;;;;;;;;;25.10;83.80;;;;;;5062996;28;19913;-48
2021/03/14 10:19:54;;;;;;;;;;;25.10;84.80;;;;;;5045453;28;19925;-49
2021/03/14 10:22:30;;;;;;;;;;;25.20;84.80;;;;;;5062965;28;19972;-51
2021/03/14 10:24:56;;;;;;;;;;;25.10;85.30;;;;;;5062705;28;19913;-52
2021/03/14 10:27:23;;;;;;;;;;;25.00;85.80;;;;;;5062859;28;19909;-50
2021/03/14 10:29:56;;;;;;;;;;;25.00;85.20;;;;;;5063338;28;19909;-50
2021/03/14 10:32:27;;;;;;;;;;;24.90;84.20;;;;;;5062639;28;19908;-51
2021/03/14 10:34:56;;;;;;;;;;;24.90;84.90;;;;;;5063128;28;19909;-51
2021/03/14 10:37:26;;;;;;;;;;;24.90;85.00;;;;;;5062689;28;19913;-55
2021/03/14 10:39:59;;;;;;;;;;;24.90;85.00;;;;;;5062956;28;19979;-50
2021/03/14 10:42:32;;;;;;;;;;;24.90;86.30;;;;;;5062583;28;20223;-55
2021/03/14 10:44:59;;;;;;;;;;;25.00;86.40;;;;;;5062455;28;20173;-51
2021/03/14 10:47:28;;;;;;;;;;;25.00;86.20;;;;;;5062578;28;19916;-50
2021/03/14 10:50:05;;;;;;;;;;;25.00;86.10;;;;;;5062920;28;19909;-50
2021/03/14 10:52:31;;;;;;;;;;;25.00;85.60;;;;;;5062524;28;20120;-57
2021/03/14 10:54:58;;;;;;;;;;;25.00;85.50;;;;;;5062912;28;19912;-50
2021/03/14 10:57:24;;;;;;;;;;;25.10;85.20;;;;;;5062197;28;20311;-50
2021/03/14 10:59:50;;;;;;;;;;;25.10;85.00;;;;;;5062765;28;19908;-51
2021/03/14 11:02:22;;;;;;;;;;;25.10;84.80;;;;;;5044594;28;19909;-51
2021/03/14 11:04:58;;;;;;;;;;;25.20;84.60;;;;;;5062611;28;19909;-54
2021/03/14 11:07:24;;;;;;;;;;;25.10;84.10;;;;;;5063346;28;19917;-50
2021/03/14 11:09:50;;;;;;;;;;;25.20;84.00;;;;;;5062561;28;19913;-50
2021/03/14 11:12:34;;;;;;;;;;;25.20;83.40;;;;;;5061940;28;19927;-57
2021/03/14 11:15:00;;;;;;;;;;;25.20;83.80;;;;;;5062142;28;20143;-49
2021/03/14 11:17:30;;;;;;;;;;;25.30;84.20;;;;;;5061863;28;19909;-48
2021/03/14 11:19:57;;;;;;;;;;;25.30;84.00;;;;;;5062532;28;20208;-50
2021/03/14 11:22:24;;;;;;;;;;;25.30;84.10;;;;;;5061993;28;20158;-50
2021/03/14 11:24:51;;;;;;;;;;;25.30;84.20;;;;;;5062211;28;19917;-50
2021/03/14 11:27:18;;;;;;;;;;;25.30;84.30;;;;;;5062007;28;19945;-49
2021/03/14 11:29:44;;;;;;;;;;;25.30;84.20;;;;;;5062394;28;19920;-51
2021/03/14 11:32:13;;;;;;;;;;;25.30;83.70;;;;;;5061821;28;19906;-49
2021/03/14 11:34:40;;;;;;;;;;;25.30;83.60;;;;;;5062192;28;19913;-52
2021/03/14 11:37:07;;;;;;;;;;;25.30;83.30;;;;;;5061718;28;19916;-52
2021/03/14 11:39:33;;;;;;;;;;;25.30;83.60;;;;;;5062063;28;19919;-48
2021/03/14 11:41:59;;;;;;;;;;;25.30;83.00;;;;;;5061660;28;20141;-51
2021/03/14 11:44:25;;;;;;;;;;;25.30;83.80;;;;;;5061990;28;19979;-51
2021/03/14 11:46:52;;;;;;;;;;;25.30;83.50;;;;;;5061613;28;19976;-55
2021/03/14 11:49:18;;;;;;;;;;;25.30;83.30;;;;;;5062070;28;19919;-51
2021/03/14 11:51:44;;;;;;;;;;;25.30;83.50;;;;;;5061634;28;20101;-51
2021/03/14 11:54:12;;;;;;;;;;;25.30;83.60;;;;;;5061960;28;19913;-51
2021/03/14 11:56:38;;;;;;;;;;;25.40;83.60;;;;;;5060361;28;19905;-53
2021/03/14 11:59:05;;;;;;;;;;;25.30;83.40;;;;;;5043866;28;19961;-51
2021/03/14 12:01:31;;;;;;;;;;;25.40;83.80;;;;;;5061438;28;20244;-53
2021/03/14 12:03:57;;;;;;;;;;;25.30;83.90;;;;;;5061381;28;19953;-51
2021/03/14 12:06:23;;;;;;;;;;;25.40;83.90;;;;;;5061280;28;19972;-53
2021/03/14 12:08:49;;;;;;;;;;;25.40;84.20;;;;;;5061406;28;19956;-52
2021/03/14 12:11:16;;;;;;;;;;;25.40;84.00;;;;;;5061164;28;19913;-52
2021/03/14 12:13:42;;;;;;;;;;;25.40;83.30;;;;;;5061372;28;19975;-52
2021/03/14 12:16:09;;;;;;;;;;;25.40;82.80;;;;;;5061250;28;19936;-55
2021/03/14 12:18:35;;;;;;;;;;;25.40;82.50;;;;;;5061106;28;19917;-52
2021/03/14 12:21:01;;;;;;;;;;;25.40;82.60;;;;;;5061123;28;20097;-56
2021/03/14 12:23:29;;;;;;;;;;;25.40;82.70;;;;;;5061299;28;19913;-50
2021/03/14 12:25:55;;;;;;;;;;;25.40;82.90;;;;;;5060899;28;19912;-54
2021/03/14 12:28:21;;;;;;;;;;;25.50;82.60;;;;;;5061178;28;19913;-51
2021/03/14 12:30:48;;;;;;;;;;;25.40;83.40;;;;;;5060867;28;19965;-51
2021/03/14 12:33:14;;;;;;;;;;;25.40;84.30;;;;;;5060812;28;19920;-49
2021/03/14 12:35:40;;;;;;;;;;;25.40;84.40;;;;;;5060807;28;20014;-50
2021/03/14 12:38:07;;;;;;;;;;;25.30;84.90;;;;;;5060778;28;19921;-50
2021/03/14 12:40:33;;;;;;;;;;;25.30;84.80;;;;;;5060897;28;19971;-52
2021/03/14 12:42:59;;;;;;;;;;;25.30;84.60;;;;;;5060837;28;19913;-50
2021/03/14 12:45:25;;;;;;;;;;;25.30;84.70;;;;;;5061121;28;19935;-54
2021/03/14 12:47:52;;;;;;;;;;;25.30;84.90;;;;;;5060949;28;20079;-50
2021/03/14 12:50:18;;;;;;;;;;;25.20;85.10;;;;;;5060509;28;20159;-51
2021/03/14 12:52:45;;;;;;;;;;;25.20;85.70;;;;;;5060840;28;20190;-50
2021/03/14 12:55:11;;;;;;;;;;;25.20;86.30;;;;;;5060569;28;19905;-51
2021/03/14 12:57:37;;;;;;;;;;;25.20;86.80;;;;;;5060413;28;19916;-52
2021/03/14 13:00:05;;;;;;;;;;;25.20;87.00;;;;;;5060745;28;19943;-54
2021/03/14 13:02:31;;;;;;;;;;;25.20;87.50;;;;;;5043344;28;19928;-50
2021/03/14 13:04:59;;;;;;;;;;;25.10;87.90;;;;;;5061281;28;19913;-51
2021/03/14 13:07:26;;;;;;;;;;;25.10;88.40;;;;;;5062549;27;20142;-52
2021/03/14 13:09:52;;;;;;;;;;;25.20;89.00;;;;;;5064272;28;19909;-52
2021/03/14 13:12:18;;;;;;;;;;;25.10;89.10;;;;;;5063864;28;19905;-51
2021/03/14 13:14:44;;;;;;;;;;;25.10;89.60;;;;;;5064486;28;19905;-50
2021/03/14 13:17:11;;;;;;;;;;;25.10;89.50;;;;;;5064688;28;19909;-50
2021/03/14 13:19:37;;;;;;;;;;;25.10;89.50;;;;;;5063979;28;19932;-50
2021/03/14 13:22:03;;;;;;;;;;;25.00;89.30;;;;;;5064278;28;20134;-53
2021/03/14 13:24:29;;;;;;;;;;;25.10;89.50;;;;;;5063954;28;19940;-53
2021/03/14 13:26:56;;;;;;;;;;;25.10;89.10;;;;;;5064645;28;19917;-56
2021/03/14 13:29:22;;;;;;;;;;;25.10;89.20;;;;;;5064386;28;19913;-54
2021/03/14 13:31:49;;;;;;;;;;;25.10;89.40;;;;;;5064767;28;20131;-52
2021/03/14 13:34:15;;;;;;;;;;;25.10;89.60;;;;;;5064120;28;20078;-48
2021/03/14 13:36:41;;;;;;;;;;;25.10;89.70;;;;;;5064157;28;19913;-50
2021/03/14 13:39:07;;;;;;;;;;;25.20;89.70;;;;;;5046472;28;20181;-51
2021/03/14 13:41:33;;;;;;;;;;;25.20;89.40;;;;;;5064174;28;20147;-51
2021/03/14 13:44:00;;;;;;;;;;;25.30;89.40;;;;;;5063443;28;20006;-54
2021/03/14 13:46:26;;;;;;;;;;;25.30;89.30;;;;;;5063938;28;19979;-51
2021/03/14 13:48:52;;;;;;;;;;;25.30;88.80;;;;;;5063524;28;19972;-49
2021/03/14 13:51:18;;;;;;;;;;;25.30;88.90;;;;;;5063287;28;19913;-56
2021/03/14 13:53:44;;;;;;;;;;;25.40;88.70;;;;;;5063530;28;19904;-50
2021/03/14 13:56:11;;;;;;;;;;;25.50;88.50;;;;;;5064114;28;19920;-54
2021/03/14 13:58:37;;;;;;;;;;;25.50;88.20;;;;;;5063694;28;19932;-51
2021/03/14 14:01:05;;;;;;;;;;;25.50;88.10;;;;;;5063588;28;20097;-50
2021/03/14 14:03:32;;;;;;;;;;;25.60;88.50;;;;;;5063169;28;20134;-53
2021/03/14 14:05:58;;;;;;;;;;;25.60;89.00;;;;;;5064233;28;19988;-51
2021/03/14 14:08:24;;;;;;;;;;;25.60;88.70;;;;;;5063227;28;19931;-50
2021/03/14 14:10:51;;;;;;;;;;;25.70;88.70;;;;;;5063179;28;19920;-50
2021/03/14 14:13:17;;;;;;;;;;;25.70;88.30;;;;;;5062797;28;19905;-52
2021/03/14 14:15:47;;;;;;;;;;;25.80;88.70;;;;;;5063659;28;19914;-49
2021/03/14 14:18:13;;;;;;;;;;;25.80;88.20;;;;;;5062898;28;20224;-51
2021/03/14 14:20:41;;;;;;;;;;;25.80;88.20;;;;;;5062917;28;19913;-51
2021/03/14 14:23:08;;;;;;;;;;;25.90;88.40;;;;;;5063231;28;19926;-50